sensor_id;sensor_type;location;lat;lon;timestamp;P1;durP1;ratioP1;P2;durP2;ratioP2
21987;SDS011;11158;53.404;-1.510;2023-04-01T00:01:28;6.25;;;2.90;;
21987;SDS011;11158;53.404;-1.510;2023-04-01T00:04:12;4.40;;;2.80;;
21987;SDS011;11158;53.404;-1.510;2023-04-01T00:06:56;6.78;;;2.45;;
21987;SDS011;11158;53.404;-1.510;2023-04-01T00:09:40;4.85;;;2.80;;
21987;SDS011;11158;53.404;-1.510;2023-04-01T00:12:24;4.32;;;2.60;;
21987;SDS011;11158;53.404;-1.510;2023-04-01T00:15:09;4.28;;;2.75;;
21987;SDS011;11158;53.404;-1.510;2023-04-01T00:17:54;4.57;;;2.58;;
21987;SDS011;11158;53.404;-1.510;2023-04-01T00:20:38;4.32;;;2.15;;
21987;SDS011;11158;53.404;-1.510;2023-04-01T00:23:26;3.97;;;2.25;;
21987;SDS011;11158;53.404;-1.510;2023-04-01T00:26:10;3.33;;;2.50;;
21987;SDS011;11158;53.404;-1.510;2023-04-01T00:28:55;4.28;;;2.17;;
21987;SDS011;11158;53.404;-1.510;2023-04-01T00:31:40;3.25;;;2.17;;
21987;SDS011;11158;53.404;-1.510;2023-04-01T00:34:24;4.10;;;2.53;;
21987;SDS011;11158;53.404;-1.510;2023-04-01T00:37:09;4.05;;;2.30;;
21987;SDS011;11158;53.404;-1.510;2023-04-01T00:39:53;3.63;;;2.47;;
21987;SDS011;11158;53.404;-1.510;2023-04-01T00:42:38;3.80;;;2.20;;
21987;SDS011;11158;53.404;-1.510;2023-04-01T00:45:33;4.40;;;2.60;;
21987;SDS011;11158;53.404;-1.510;2023-04-01T00:48:20;4.97;;;3.05;;
21987;SDS011;11158;53.404;-1.510;2023-04-01T00:51:09;5.22;;;2.70;;
21987;SDS011;11158;53.404;-1.510;2023-04-01T00:53:59;4.88;;;2.42;;
21987;SDS011;11158;53.404;-1.510;2023-04-01T00:56:51;6.60;;;2.70;;
21987;SDS011;11158;53.404;-1.510;2023-04-01T00:59:44;3.15;;;2.25;;
21987;SDS011;11158;53.404;-1.510;2023-04-01T01:02:35;3.97;;;2.60;;
21987;SDS011;11158;53.404;-1.510;2023-04-01T01:05:21;4.57;;;2.70;;
21987;SDS011;11158;53.404;-1.510;2023-04-01T01:08:18;3.70;;;2.40;;
21987;SDS011;11158;53.404;-1.510;2023-04-01T01:11:16;3.80;;;2.60;;
21987;SDS011;11158;53.404;-1.510;2023-04-01T01:17:49;2.47;;;2.28;;
21987;SDS011;11158;53.404;-1.510;2023-04-01T01:27:05;2.97;;;2.28;;
21987;SDS011;11158;53.404;-1.510;2023-04-01T01:35:49;4.80;;;2.63;;
21987;SDS011;11158;53.404;-1.510;2023-04-01T01:38:36;5.65;;;2.50;;
21987;SDS011;11158;53.404;-1.510;2023-04-01T01:41:21;2.20;;;2.00;;
21987;SDS011;11158;53.404;-1.510;2023-04-01T01:44:11;3.08;;;2.28;;
21987;SDS011;11158;53.404;-1.510;2023-04-01T01:46:58;3.50;;;2.10;;
21987;SDS011;11158;53.404;-1.510;2023-04-01T01:49:43;2.75;;;2.25;;
21987;SDS011;11158;53.404;-1.510;2023-04-01T01:52:29;4.32;;;2.35;;
21987;SDS011;11158;53.404;-1.510;2023-04-01T01:55:24;3.00;;;2.05;;
21987;SDS011;11158;53.404;-1.510;2023-04-01T02:01:03;3.47;;;2.00;;
21987;SDS011;11158;53.404;-1.510;2023-04-01T02:03:50;2.58;;;1.88;;
21987;SDS011;11158;53.404;-1.510;2023-04-01T02:06:37;3.25;;;1.70;;
21987;SDS011;11158;53.404;-1.510;2023-04-01T02:09:25;4.93;;;2.33;;
21987;SDS011;11158;53.404;-1.510;2023-04-01T02:12:11;3.97;;;2.30;;
21987;SDS011;11158;53.404;-1.510;2023-04-01T02:15:00;3.20;;;1.92;;
21987;SDS011;11158;53.404;-1.510;2023-04-01T02:17:49;3.58;;;1.90;;
21987;SDS011;11158;53.404;-1.510;2023-04-01T02:20:34;3.50;;;2.35;;
21987;SDS011;11158;53.404;-1.510;2023-04-01T02:23:22;7.13;;;2.45;;
21987;SDS011;11158;53.404;-1.510;2023-04-01T02:26:07;2.63;;;1.90;;
21987;SDS011;11158;53.404;-1.510;2023-04-01T02:28:53;4.00;;;2.30;;
21987;SDS011;11158;53.404;-1.510;2023-04-01T02:31:39;4.07;;;2.10;;
21987;SDS011;11158;53.404;-1.510;2023-04-01T02:34:26;3.35;;;2.05;;
21987;SDS011;11158;53.404;-1.510;2023-04-01T02:37:11;4.38;;;2.33;;
21987;SDS011;11158;53.404;-1.510;2023-04-01T02:40:01;5.25;;;2.17;;
21987;SDS011;11158;53.404;-1.510;2023-04-01T02:42:47;9.45;;;2.10;;
21987;SDS011;11158;53.404;-1.510;2023-04-01T02:45:31;3.92;;;1.60;;
21987;SDS011;11158;53.404;-1.510;2023-04-01T02:48:15;4.47;;;2.05;;
21987;SDS011;11158;53.404;-1.510;2023-04-01T02:51:00;4.22;;;1.95;;
21987;SDS011;11158;53.404;-1.510;2023-04-01T02:53:44;4.15;;;1.80;;
21987;SDS011;11158;53.404;-1.510;2023-04-01T02:56:29;4.05;;;1.75;;
21987;SDS011;11158;53.404;-1.510;2023-04-01T02:59:13;3.50;;;1.70;;
21987;SDS011;11158;53.404;-1.510;2023-04-01T03:01:57;5.63;;;1.80;;
21987;SDS011;11158;53.404;-1.510;2023-04-01T03:04:41;3.63;;;1.80;;
21987;SDS011;11158;53.404;-1.510;2023-04-01T03:07:25;4.85;;;2.17;;
21987;SDS011;11158;53.404;-1.510;2023-04-01T03:10:09;2.67;;;2.00;;
21987;SDS011;11158;53.404;-1.510;2023-04-01T03:12:54;4.43;;;1.92;;
21987;SDS011;11158;53.404;-1.510;2023-04-01T03:15:38;3.33;;;2.20;;
21987;SDS011;11158;53.404;-1.510;2023-04-01T03:18:22;3.38;;;2.13;;
21987;SDS011;11158;53.404;-1.510;2023-04-01T03:24:16;2.67;;;1.75;;
21987;SDS011;11158;53.404;-1.510;2023-04-01T03:27:01;5.43;;;1.50;;
21987;SDS011;11158;53.404;-1.510;2023-04-01T03:29:45;2.83;;;1.40;;
21987;SDS011;11158;53.404;-1.510;2023-04-01T03:32:29;2.72;;;1.48;;
21987;SDS011;11158;53.404;-1.510;2023-04-01T03:35:13;2.70;;;1.30;;
21987;SDS011;11158;53.404;-1.510;2023-04-01T03:37:57;4.00;;;1.60;;
21987;SDS011;11158;53.404;-1.510;2023-04-01T03:40:42;4.93;;;1.40;;
21987;SDS011;11158;53.404;-1.510;2023-04-01T03:43:26;2.97;;;1.40;;
21987;SDS011;11158;53.404;-1.510;2023-04-01T03:46:11;3.03;;;1.35;;
21987;SDS011;11158;53.404;-1.510;2023-04-01T03:48:59;3.83;;;1.60;;
21987;SDS011;11158;53.404;-1.510;2023-04-01T03:51:44;1.92;;;1.50;;
21987;SDS011;11158;53.404;-1.510;2023-04-01T03:54:28;4.22;;;1.60;;
21987;SDS011;11158;53.404;-1.510;2023-04-01T03:57:12;2.58;;;1.08;;
21987;SDS011;11158;53.404;-1.510;2023-04-01T03:59:56;2.65;;;1.48;;
21987;SDS011;11158;53.404;-1.510;2023-04-01T04:02:40;1.77;;;1.35;;
21987;SDS011;11158;53.404;-1.510;2023-04-01T04:05:25;4.45;;;1.25;;
21987;SDS011;11158;53.404;-1.510;2023-04-01T04:08:09;2.17;;;1.25;;
21987;SDS011;11158;53.404;-1.510;2023-04-01T04:10:56;2.10;;;1.20;;
21987;SDS011;11158;53.404;-1.510;2023-04-01T04:13:41;2.25;;;1.27;;
21987;SDS011;11158;53.404;-1.510;2023-04-01T04:16:26;3.13;;;1.23;;
21987;SDS011;11158;53.404;-1.510;2023-04-01T04:19:10;1.70;;;1.02;;
21987;SDS011;11158;53.404;-1.510;2023-04-01T04:21:54;4.05;;;1.40;;
21987;SDS011;11158;53.404;-1.510;2023-04-01T04:24:38;3.15;;;1.13;;
21987;SDS011;11158;53.404;-1.510;2023-04-01T04:27:22;3.78;;;1.63;;
21987;SDS011;11158;53.404;-1.510;2023-04-01T04:30:07;2.38;;;1.27;;
21987;SDS011;11158;53.404;-1.510;2023-04-01T04:32:51;3.53;;;1.38;;
21987;SDS011;11158;53.404;-1.510;2023-04-01T04:35:35;1.42;;;1.10;;
21987;SDS011;11158;53.404;-1.510;2023-04-01T04:38:19;4.20;;;1.30;;
21987;SDS011;11158;53.404;-1.510;2023-04-01T04:41:07;1.48;;;1.05;;
21987;SDS011;11158;53.404;-1.510;2023-04-01T04:43:56;5.85;;;1.20;;
21987;SDS011;11158;53.404;-1.510;2023-04-01T04:46:42;1.23;;;1.10;;
21987;SDS011;11158;53.404;-1.510;2023-04-01T04:49:26;3.25;;;1.20;;
21987;SDS011;11158;53.404;-1.510;2023-04-01T04:52:10;4.65;;;1.45;;
21987;SDS011;11158;53.404;-1.510;2023-04-01T04:54:54;2.05;;;1.20;;
21987;SDS011;11158;53.404;-1.510;2023-04-01T04:57:38;2.60;;;1.50;;
21987;SDS011;11158;53.404;-1.510;2023-04-01T05:00:22;3.33;;;1.90;;
21987;SDS011;11158;53.404;-1.510;2023-04-01T05:03:06;4.25;;;2.50;;
21987;SDS011;11158;53.404;-1.510;2023-04-01T05:05:52;3.38;;;2.30;;
21987;SDS011;11158;53.404;-1.510;2023-04-01T05:08:37;5.45;;;2.00;;
21987;SDS011;11158;53.404;-1.510;2023-04-01T05:11:23;4.72;;;1.95;;
21987;SDS011;11158;53.404;-1.510;2023-04-01T05:14:11;4.05;;;2.00;;
21987;SDS011;11158;53.404;-1.510;2023-04-01T05:16:56;3.63;;;2.42;;
21987;SDS011;11158;53.404;-1.510;2023-04-01T05:19:40;7.18;;;2.35;;
21987;SDS011;11158;53.404;-1.510;2023-04-01T05:22:25;6.85;;;2.25;;
21987;SDS011;11158;53.404;-1.510;2023-04-01T05:25:09;5.60;;;2.10;;
21987;SDS011;11158;53.404;-1.510;2023-04-01T05:27:53;4.75;;;2.22;;
21987;SDS011;11158;53.404;-1.510;2023-04-01T05:30:41;5.07;;;2.50;;
21987;SDS011;11158;53.404;-1.510;2023-04-01T05:33:27;7.13;;;2.50;;
21987;SDS011;11158;53.404;-1.510;2023-04-01T05:36:15;6.15;;;2.53;;
21987;SDS011;11158;53.404;-1.510;2023-04-01T05:39:00;6.07;;;2.75;;
21987;SDS011;11158;53.404;-1.510;2023-04-01T05:41:44;3.50;;;2.40;;
21987;SDS011;11158;53.404;-1.510;2023-04-01T05:44:28;8.88;;;2.60;;
21987;SDS011;11158;53.404;-1.510;2023-04-01T05:47:12;5.18;;;2.55;;
21987;SDS011;11158;53.404;-1.510;2023-04-01T05:49:56;5.43;;;2.75;;
21987;SDS011;11158;53.404;-1.510;2023-04-01T05:52:40;4.00;;;1.85;;
21987;SDS011;11158;53.404;-1.510;2023-04-01T05:55:24;3.83;;;1.63;;
21987;SDS011;11158;53.404;-1.510;2023-04-01T05:58:08;3.28;;;1.73;;
21987;SDS011;11158;53.404;-1.510;2023-04-01T06:00:53;2.90;;;1.40;;
21987;SDS011;11158;53.404;-1.510;2023-04-01T06:03:44;4.68;;;1.45;;
21987;SDS011;11158;53.404;-1.510;2023-04-01T06:06:29;3.28;;;1.25;;
21987;SDS011;11158;53.404;-1.510;2023-04-01T06:09:19;5.78;;;1.60;;
21987;SDS011;11158;53.404;-1.510;2023-04-01T06:12:14;2.53;;;1.13;;
21987;SDS011;11158;53.404;-1.510;2023-04-01T06:17:57;4.70;;;1.50;;
21987;SDS011;11158;53.404;-1.510;2023-04-01T06:24:22;1.85;;;1.00;;
21987;SDS011;11158;53.404;-1.510;2023-04-01T06:29:58;2.85;;;1.20;;
21987;SDS011;11158;53.404;-1.510;2023-04-01T06:33:02;2.47;;;1.05;;
21987;SDS011;11158;53.404;-1.510;2023-04-01T06:39:12;4.32;;;1.77;;
21987;SDS011;11158;53.404;-1.510;2023-04-01T06:54:49;6.05;;;2.35;;
21987;SDS011;11158;53.404;-1.510;2023-04-01T06:57:43;4.45;;;2.20;;
21987;SDS011;11158;53.404;-1.510;2023-04-01T07:03:31;4.50;;;1.90;;
21987;SDS011;11158;53.404;-1.510;2023-04-01T07:07:05;4.13;;;1.95;;
21987;SDS011;11158;53.404;-1.510;2023-04-01T07:09:35;2.63;;;2.03;;
21987;SDS011;11158;53.404;-1.510;2023-04-01T07:12:28;4.28;;;1.55;;
21987;SDS011;11158;53.404;-1.510;2023-04-01T07:15:19;3.22;;;1.58;;
21987;SDS011;11158;53.404;-1.510;2023-04-01T07:18:12;2.60;;;1.52;;
21987;SDS011;11158;53.404;-1.510;2023-04-01T07:21:01;2.75;;;1.42;;
21987;SDS011;11158;53.404;-1.510;2023-04-01T07:23:45;3.05;;;1.30;;
21987;SDS011;11158;53.404;-1.510;2023-04-01T07:26:31;2.67;;;1.13;;
21987;SDS011;11158;53.404;-1.510;2023-04-01T07:29:15;4.43;;;1.42;;
21987;SDS011;11158;53.404;-1.510;2023-04-01T07:35:25;4.30;;;1.25;;
21987;SDS011;11158;53.404;-1.510;2023-04-01T07:41:32;3.00;;;1.30;;
21987;SDS011;11158;53.404;-1.510;2023-04-01T07:47:34;4.57;;;1.65;;
21987;SDS011;11158;53.404;-1.510;2023-04-01T07:50:30;2.30;;;1.65;;
21987;SDS011;11158;53.404;-1.510;2023-04-01T08:02:38;3.53;;;1.95;;
21987;SDS011;11158;53.404;-1.510;2023-04-01T08:05:26;3.22;;;1.40;;
21987;SDS011;11158;53.404;-1.510;2023-04-01T08:11:28;3.35;;;1.52;;
21987;SDS011;11158;53.404;-1.510;2023-04-01T08:23:44;2.75;;;1.60;;
21987;SDS011;11158;53.404;-1.510;2023-04-01T08:29:25;3.78;;;1.75;;
21987;SDS011;11158;53.404;-1.510;2023-04-01T08:32:25;3.67;;;1.90;;
21987;SDS011;11158;53.404;-1.510;2023-04-01T08:35:29;3.95;;;1.70;;
21987;SDS011;11158;53.404;-1.510;2023-04-01T08:38:36;1.85;;;1.40;;
21987;SDS011;11158;53.404;-1.510;2023-04-01T08:55:38;2.35;;;1.50;;
21987;SDS011;11158;53.404;-1.510;2023-04-01T08:58:20;2.65;;;1.42;;
21987;SDS011;11158;53.404;-1.510;2023-04-01T09:08:07;2.63;;;1.40;;
21987;SDS011;11158;53.404;-1.510;2023-04-01T09:29:30;2.22;;;1.02;;
21987;SDS011;11158;53.404;-1.510;2023-04-01T09:32:42;1.10;;;1.00;;
21987;SDS011;11158;53.404;-1.510;2023-04-01T09:35:49;4.60;;;0.88;;
21987;SDS011;11158;53.404;-1.510;2023-04-01T09:38:55;3.55;;;1.10;;
21987;SDS011;11158;53.404;-1.510;2023-04-01T09:44:42;3.47;;;1.20;;
21987;SDS011;11158;53.404;-1.510;2023-04-01T10:44:45;1.33;;;0.90;;
21987;SDS011;11158;53.404;-1.510;2023-04-01T10:50:24;1.85;;;0.80;;
21987;SDS011;11158;53.404;-1.510;2023-04-01T10:53:34;1.88;;;0.88;;
21987;SDS011;11158;53.404;-1.510;2023-04-01T10:56:31;2.28;;;1.20;;
21987;SDS011;11158;53.404;-1.510;2023-04-01T11:20:31;2.10;;;0.82;;
21987;SDS011;11158;53.404;-1.510;2023-04-01T11:30:01;2.67;;;1.10;;
21987;SDS011;11158;53.404;-1.510;2023-04-01T11:39:43;1.50;;;0.90;;
21987;SDS011;11158;53.404;-1.510;2023-04-01T11:42:38;2.88;;;1.20;;
21987;SDS011;11158;53.404;-1.510;2023-04-01T11:45:40;3.10;;;1.20;;
21987;SDS011;11158;53.404;-1.510;2023-04-01T11:51:48;2.15;;;0.80;;
21987;SDS011;11158;53.404;-1.510;2023-04-01T12:09:58;0.80;;;0.70;;
21987;SDS011;11158;53.404;-1.510;2023-04-01T12:13:16;1.90;;;0.73;;
21987;SDS011;11158;53.404;-1.510;2023-04-01T12:41:08;3.00;;;0.70;;
21987;SDS011;11158;53.404;-1.510;2023-04-01T12:47:22;2.67;;;1.90;;
21987;SDS011;11158;53.404;-1.510;2023-04-01T12:59:55;1.70;;;0.80;;
21987;SDS011;11158;53.404;-1.510;2023-04-01T13:19:01;7.85;;;1.08;;
21987;SDS011;11158;53.404;-1.510;2023-04-01T13:31:24;1.95;;;1.00;;
21987;SDS011;11158;53.404;-1.510;2023-04-01T13:43:39;2.05;;;0.70;;
21987;SDS011;11158;53.404;-1.510;2023-04-01T13:59:27;1.98;;;0.80;;
21987;SDS011;11158;53.404;-1.510;2023-04-01T14:09:05;2.60;;;0.80;;
21987;SDS011;11158;53.404;-1.510;2023-04-01T14:12:21;4.05;;;0.90;;
21987;SDS011;11158;53.404;-1.510;2023-04-01T14:21:14;0.60;;;0.60;;
21987;SDS011;11158;53.404;-1.510;2023-04-01T14:45:59;1.00;;;0.80;;
21987;SDS011;11158;53.404;-1.510;2023-04-01T14:51:44;2.47;;;1.00;;
21987;SDS011;11158;53.404;-1.510;2023-04-01T14:54:30;2.65;;;1.40;;
21987;SDS011;11158;53.404;-1.510;2023-04-01T15:03:14;3.00;;;1.63;;
21987;SDS011;11158;53.404;-1.510;2023-04-01T15:15:49;1.35;;;1.00;;
21987;SDS011;11158;53.404;-1.510;2023-04-01T15:24:46;1.30;;;1.00;;
21987;SDS011;11158;53.404;-1.510;2023-04-01T15:27:50;2.08;;;1.30;;
21987;SDS011;11158;53.404;-1.510;2023-04-01T15:42:54;2.70;;;1.30;;
21987;SDS011;11158;53.404;-1.510;2023-04-01T15:45:51;3.17;;;1.50;;
21987;SDS011;11158;53.404;-1.510;2023-04-01T15:55:25;6.25;;;2.08;;
21987;SDS011;11158;53.404;-1.510;2023-04-01T15:58:21;5.75;;;1.90;;
21987;SDS011;11158;53.404;-1.510;2023-04-01T16:01:21;3.90;;;2.42;;
21987;SDS011;11158;53.404;-1.510;2023-04-01T16:07:37;6.07;;;2.50;;
21987;SDS011;11158;53.404;-1.510;2023-04-01T16:16:19;6.85;;;2.60;;
21987;SDS011;11158;53.404;-1.510;2023-04-01T16:31:16;7.78;;;2.65;;
21987;SDS011;11158;53.404;-1.510;2023-04-01T16:37:20;8.57;;;2.63;;
21987;SDS011;11158;53.404;-1.510;2023-04-01T16:43:35;5.45;;;1.80;;
21987;SDS011;11158;53.404;-1.510;2023-04-01T16:49:42;9.15;;;2.30;;
21987;SDS011;11158;53.404;-1.510;2023-04-01T17:01:48;7.80;;;2.80;;
21987;SDS011;11158;53.404;-1.510;2023-04-01T17:04:34;7.70;;;2.63;;
21987;SDS011;11158;53.404;-1.510;2023-04-01T17:07:27;7.53;;;3.30;;
21987;SDS011;11158;53.404;-1.510;2023-04-01T17:10:36;6.88;;;3.10;;
21987;SDS011;11158;53.404;-1.510;2023-04-01T17:17:01;9.25;;;3.17;;
21987;SDS011;11158;53.404;-1.510;2023-04-01T17:23:24;4.60;;;2.88;;
21987;SDS011;11158;53.404;-1.510;2023-04-01T17:45:11;6.67;;;3.40;;
21987;SDS011;11158;53.404;-1.510;2023-04-01T17:57:09;4.50;;;2.58;;
21987;SDS011;11158;53.404;-1.510;2023-04-01T18:00:18;4.50;;;2.30;;
21987;SDS011;11158;53.404;-1.510;2023-04-01T18:03:15;7.13;;;3.08;;
21987;SDS011;11158;53.404;-1.510;2023-04-01T18:12:09;4.05;;;2.92;;
21987;SDS011;11158;53.404;-1.510;2023-04-01T18:23:56;3.78;;;2.22;;
21987;SDS011;11158;53.404;-1.510;2023-04-01T18:26:46;3.00;;;2.10;;
21987;SDS011;11158;53.404;-1.510;2023-04-01T18:39:21;4.95;;;2.80;;
21987;SDS011;11158;53.404;-1.510;2023-04-01T18:48:37;5.18;;;3.13;;
21987;SDS011;11158;53.404;-1.510;2023-04-01T18:54:49;3.30;;;2.78;;
21987;SDS011;11158;53.404;-1.510;2023-04-01T18:57:50;6.18;;;2.88;;
21987;SDS011;11158;53.404;-1.510;2023-04-01T19:00:41;5.53;;;2.35;;
21987;SDS011;11158;53.404;-1.510;2023-04-01T19:06:53;4.72;;;2.67;;
21987;SDS011;11158;53.404;-1.510;2023-04-01T19:09:45;5.82;;;3.33;;
21987;SDS011;11158;53.404;-1.510;2023-04-01T19:12:34;6.95;;;3.53;;
21987;SDS011;11158;53.404;-1.510;2023-04-01T19:21:28;5.97;;;3.03;;
21987;SDS011;11158;53.404;-1.510;2023-04-01T19:27:42;4.18;;;2.97;;
21987;SDS011;11158;53.404;-1.510;2023-04-01T19:36:29;5.18;;;3.58;;
21987;SDS011;11158;53.404;-1.510;2023-04-01T19:54:48;5.85;;;3.20;;
21987;SDS011;11158;53.404;-1.510;2023-04-01T20:12:32;7.28;;;3.22;;
21987;SDS011;11158;53.404;-1.510;2023-04-01T20:15:36;6.07;;;2.92;;
21987;SDS011;11158;53.404;-1.510;2023-04-01T20:18:26;6.00;;;3.78;;
21987;SDS011;11158;53.404;-1.510;2023-04-01T20:21:43;6.70;;;4.00;;
21987;SDS011;11158;53.404;-1.510;2023-04-01T20:24:33;5.20;;;3.00;;
21987;SDS011;11158;53.404;-1.510;2023-04-01T20:27:31;5.38;;;3.67;;
21987;SDS011;11158;53.404;-1.510;2023-04-01T20:51:53;5.00;;;2.53;;
21987;SDS011;11158;53.404;-1.510;2023-04-01T20:55:26;9.65;;;3.80;;
21987;SDS011;11158;53.404;-1.510;2023-04-01T20:58:02;5.60;;;3.47;;
21987;SDS011;11158;53.404;-1.510;2023-04-01T21:18:54;4.65;;;3.60;;
21987;SDS011;11158;53.404;-1.510;2023-04-01T21:22:05;8.07;;;3.85;;
21987;SDS011;11158;53.404;-1.510;2023-04-01T21:28:20;4.55;;;3.30;;
21987;SDS011;11158;53.404;-1.510;2023-04-01T21:31:28;3.88;;;2.40;;
21987;SDS011;11158;53.404;-1.510;2023-04-01T21:46:50;4.82;;;2.67;;
21987;SDS011;11158;53.404;-1.510;2023-04-01T21:53:18;5.47;;;2.70;;
21987;SDS011;11158;53.404;-1.510;2023-04-01T21:59:18;4.70;;;2.60;;
21987;SDS011;11158;53.404;-1.510;2023-04-01T22:14:38;5.38;;;3.10;;
21987;SDS011;11158;53.404;-1.510;2023-04-01T22:24:17;8.07;;;4.30;;
21987;SDS011;11158;53.404;-1.510;2023-04-01T22:27:19;7.35;;;4.15;;
21987;SDS011;11158;53.404;-1.510;2023-04-01T22:40:00;10.27;;;4.45;;
21987;SDS011;11158;53.404;-1.510;2023-04-01T22:42:56;7.72;;;4.72;;
21987;SDS011;11158;53.404;-1.510;2023-04-01T22:48:43;9.55;;;4.80;;
21987;SDS011;11158;53.404;-1.510;2023-04-01T22:54:43;5.90;;;3.85;;
21987;SDS011;11158;53.404;-1.510;2023-04-01T22:57:40;8.60;;;3.97;;
21987;SDS011;11158;53.404;-1.510;2023-04-01T23:00:26;8.98;;;3.95;;
21987;SDS011;11158;53.404;-1.510;2023-04-01T23:03:23;9.90;;;4.47;;
21987;SDS011;11158;53.404;-1.510;2023-04-01T23:06:13;6.00;;;4.28;;
21987;SDS011;11158;53.404;-1.510;2023-04-01T23:09:45;7.95;;;4.60;;
21987;SDS011;11158;53.404;-1.510;2023-04-01T23:12:13;7.63;;;4.30;;
21987;SDS011;11158;53.404;-1.510;2023-04-01T23:14:59;6.80;;;4.65;;
21987;SDS011;11158;53.404;-1.510;2023-04-01T23:18:18;7.38;;;5.20;;
21987;SDS011;11158;53.404;-1.510;2023-04-01T23:24:03;7.53;;;4.60;;
21987;SDS011;11158;53.404;-1.510;2023-04-01T23:27:08;8.25;;;4.60;;
21987;SDS011;11158;53.404;-1.510;2023-04-01T23:30:00;6.80;;;4.45;;
21987;SDS011;11158;53.404;-1.510;2023-04-01T23:32:45;8.38;;;4.53;;
21987;SDS011;11158;53.404;-1.510;2023-04-01T23:35:30;7.13;;;3.65;;
21987;SDS011;11158;53.404;-1.510;2023-04-01T23:38:14;5.82;;;3.70;;
21987;SDS011;11158;53.404;-1.510;2023-04-01T23:40:59;7.45;;;3.95;;
21987;SDS011;11158;53.404;-1.510;2023-04-01T23:43:44;9.40;;;4.20;;
21987;SDS011;11158;53.404;-1.510;2023-04-01T23:46:33;7.65;;;4.03;;
21987;SDS011;11158;53.404;-1.510;2023-04-01T23:49:21;7.40;;;4.10;;
21987;SDS011;11158;53.404;-1.510;2023-04-01T23:52:14;7.63;;;4.43;;
21987;SDS011;11158;53.404;-1.510;2023-04-01T23:55:25;7.93;;;4.28;;
